El Triunfo, Argentina
Current Conditions -  °F | °C
As of 4:00 AM on Saturday 01 Nov 2014 (Local Time) from SAAR Reporting Station
Drizzle Drizzle  
Wind Chill: 13°   Ceiling: 1200
Heat Index: 13°   Visibility: 6mi
Dew Point: 12°   Wind: 16mph
Humidity: 94%   Direction: 140°SE
Pressure: 30.06"   Gusts: NA
Location:  35.11°S, 61.6°W
Report Text: SAAR 010700Z 14014KT 9000 -DZ SCT007 BKN012OVC015 13/12 Q1018
Loading
Personal Weather Stations






























Interactive Weather Map
Tropical Storm Tracking
New forecast layout! Learn more

10-Day Weather Forecast

Advertisements
Track Severe Weather on mobile